sensor_id;sensor_type;location;lat;lon;timestamp;temperature;humidity
60353;DHT22;46196;52.970;6.954;2023-07-31T00:00:13;16.40;99.90
60353;DHT22;46196;52.970;6.954;2023-07-31T00:02:39;16.60;99.90
60353;DHT22;46196;52.970;6.954;2023-07-31T00:05:05;15.10;99.90
60353;DHT22;46196;52.970;6.954;2023-07-31T00:07:32;16.30;99.90
60353;DHT22;46196;52.970;6.954;2023-07-31T00:09:58;15.10;99.90
60353;DHT22;46196;52.970;6.954;2023-07-31T00:12:23;15.60;99.90
60353;DHT22;46196;52.970;6.954;2023-07-31T00:14:49;16.10;99.90
60353;DHT22;46196;52.970;6.954;2023-07-31T00:17:17;15.20;99.90
60353;DHT22;46196;52.970;6.954;2023-07-31T00:19:43;15.50;99.90
60353;DHT22;46196;52.970;6.954;2023-07-31T00:22:09;17.20;99.90
60353;DHT22;46196;52.970;6.954;2023-07-31T00:24:34;17.80;99.90
60353;DHT22;46196;52.970;6.954;2023-07-31T00:29:26;15.30;99.90
60353;DHT22;46196;52.970;6.954;2023-07-31T00:31:53;14.90;99.90
60353;DHT22;46196;52.970;6.954;2023-07-31T00:34:18;15.90;99.90
60353;DHT22;46196;52.970;6.954;2023-07-31T00:36:44;15.30;99.90
60353;DHT22;46196;52.970;6.954;2023-07-31T00:39:10;15.70;99.90
60353;DHT22;46196;52.970;6.954;2023-07-31T00:44:01;15.00;99.90
60353;DHT22;46196;52.970;6.954;2023-07-31T00:46:27;15.30;99.90
60353;DHT22;46196;52.970;6.954;2023-07-31T00:49:04;15.20;99.90
60353;DHT22;46196;52.970;6.954;2023-07-31T00:51:30;15.80;99.90
60353;DHT22;46196;52.970;6.954;2023-07-31T00:53:56;15.20;99.90
60353;DHT22;46196;52.970;6.954;2023-07-31T00:56:22;15.00;99.90
60353;DHT22;46196;52.970;6.954;2023-07-31T00:58:49;15.40;99.90
60353;DHT22;46196;52.970;6.954;2023-07-31T01:01:15;15.10;99.90
60353;DHT22;46196;52.970;6.954;2023-07-31T01:03:40;16.60;99.90
60353;DHT22;46196;52.970;6.954;2023-07-31T01:12:01;15.10;99.90
60353;DHT22;46196;52.970;6.954;2023-07-31T01:14:28;16.40;99.90
60353;DHT22;46196;52.970;6.954;2023-07-31T01:19:25;15.10;99.90
60353;DHT22;46196;52.970;6.954;2023-07-31T01:27:53;15.20;99.90
60353;DHT22;46196;52.970;6.954;2023-07-31T01:30:25;14.90;99.90
60353;DHT22;46196;52.970;6.954;2023-07-31T01:32:54;14.30;99.90
60353;DHT22;46196;52.970;6.954;2023-07-31T01:35:20;15.20;99.90
60353;DHT22;46196;52.970;6.954;2023-07-31T01:37:46;14.90;99.90
60353;DHT22;46196;52.970;6.954;2023-07-31T01:40:12;15.20;99.90
60353;DHT22;46196;52.970;6.954;2023-07-31T01:42:37;16.50;99.90
60353;DHT22;46196;52.970;6.954;2023-07-31T01:45:03;15.20;99.90
60353;DHT22;46196;52.970;6.954;2023-07-31T01:47:29;14.80;99.90
60353;DHT22;46196;52.970;6.954;2023-07-31T01:49:55;14.80;99.90
60353;DHT22;46196;52.970;6.954;2023-07-31T01:54:47;15.00;99.90
60353;DHT22;46196;52.970;6.954;2023-07-31T01:57:12;14.70;99.90
60353;DHT22;46196;52.970;6.954;2023-07-31T02:02:04;17.10;99.90
60353;DHT22;46196;52.970;6.954;2023-07-31T02:09:22;16.20;99.90
60353;DHT22;46196;52.970;6.954;2023-07-31T02:11:48;15.70;99.90
60353;DHT22;46196;52.970;6.954;2023-07-31T02:14:14;15.30;99.90
60353;DHT22;46196;52.970;6.954;2023-07-31T02:19:08;14.90;99.90
60353;DHT22;46196;52.970;6.954;2023-07-31T02:21:33;16.40;99.90
60353;DHT22;46196;52.970;6.954;2023-07-31T02:23:59;15.50;99.90
60353;DHT22;46196;52.970;6.954;2023-07-31T02:26:25;15.40;99.90
60353;DHT22;46196;52.970;6.954;2023-07-31T02:28:50;15.20;99.90
60353;DHT22;46196;52.970;6.954;2023-07-31T02:31:16;15.20;99.90
60353;DHT22;46196;52.970;6.954;2023-07-31T02:33:41;15.10;99.90
60353;DHT22;46196;52.970;6.954;2023-07-31T02:38:36;15.00;99.90
60353;DHT22;46196;52.970;6.954;2023-07-31T02:41:02;15.10;99.90
60353;DHT22;46196;52.970;6.954;2023-07-31T02:43:28;14.90;99.90
60353;DHT22;46196;52.970;6.954;2023-07-31T02:45:53;15.10;99.90
60353;DHT22;46196;52.970;6.954;2023-07-31T02:48:19;15.10;99.90
60353;DHT22;46196;52.970;6.954;2023-07-31T02:50:45;15.10;99.90
60353;DHT22;46196;52.970;6.954;2023-07-31T02:53:11;15.00;99.90
60353;DHT22;46196;52.970;6.954;2023-07-31T02:55:37;15.00;99.90
60353;DHT22;46196;52.970;6.954;2023-07-31T03:02:54;15.10;99.90
60353;DHT22;46196;52.970;6.954;2023-07-31T03:05:20;15.20;99.90
60353;DHT22;46196;52.970;6.954;2023-07-31T03:07:46;14.90;99.90
60353;DHT22;46196;52.970;6.954;2023-07-31T03:15:04;15.10;99.90
60353;DHT22;46196;52.970;6.954;2023-07-31T03:17:30;15.70;99.90
60353;DHT22;46196;52.970;6.954;2023-07-31T03:19:56;15.00;99.90
60353;DHT22;46196;52.970;6.954;2023-07-31T03:22:21;14.90;99.90
60353;DHT22;46196;52.970;6.954;2023-07-31T03:27:13;15.20;99.90
60353;DHT22;46196;52.970;6.954;2023-07-31T03:29:39;15.00;99.90
60353;DHT22;46196;52.970;6.954;2023-07-31T03:32:04;16.00;99.90
60353;DHT22;46196;52.970;6.954;2023-07-31T03:34:30;16.80;99.90
60353;DHT22;46196;52.970;6.954;2023-07-31T03:36:58;15.30;99.90
60353;DHT22;46196;52.970;6.954;2023-07-31T03:41:49;15.30;99.90
60353;DHT22;46196;52.970;6.954;2023-07-31T03:44:15;14.60;99.90
60353;DHT22;46196;52.970;6.954;2023-07-31T03:46:41;14.90;99.90
60353;DHT22;46196;52.970;6.954;2023-07-31T03:49:06;15.30;99.90
60353;DHT22;46196;52.970;6.954;2023-07-31T03:51:32;14.80;99.90
60353;DHT22;46196;52.970;6.954;2023-07-31T03:56:24;15.80;99.90
60353;DHT22;46196;52.970;6.954;2023-07-31T03:58:50;15.50;99.90
60353;DHT22;46196;52.970;6.954;2023-07-31T04:01:15;15.10;99.90
60353;DHT22;46196;52.970;6.954;2023-07-31T04:03:42;15.00;99.90
60353;DHT22;46196;52.970;6.954;2023-07-31T04:08:33;15.90;99.90
60353;DHT22;46196;52.970;6.954;2023-07-31T04:13:25;14.90;99.90
60353;DHT22;46196;52.970;6.954;2023-07-31T04:15:53;15.40;99.90
60353;DHT22;46196;52.970;6.954;2023-07-31T04:18:19;16.60;99.90
60353;DHT22;46196;52.970;6.954;2023-07-31T04:20:45;15.80;99.90
60353;DHT22;46196;52.970;6.954;2023-07-31T04:23:11;15.10;99.90
60353;DHT22;46196;52.970;6.954;2023-07-31T04:25:37;16.10;99.90
60353;DHT22;46196;52.970;6.954;2023-07-31T04:30:29;16.10;99.90
60353;DHT22;46196;52.970;6.954;2023-07-31T04:32:54;16.10;99.90
60353;DHT22;46196;52.970;6.954;2023-07-31T04:35:20;15.60;99.90
60353;DHT22;46196;52.970;6.954;2023-07-31T04:37:46;15.60;99.90
60353;DHT22;46196;52.970;6.954;2023-07-31T04:40:15;15.40;99.90
60353;DHT22;46196;52.970;6.954;2023-07-31T04:42:40;16.20;99.90
60353;DHT22;46196;52.970;6.954;2023-07-31T04:45:07;15.30;99.90
60353;DHT22;46196;52.970;6.954;2023-07-31T04:47:33;15.80;99.90
60353;DHT22;46196;52.970;6.954;2023-07-31T04:49:58;15.70;99.90
60353;DHT22;46196;52.970;6.954;2023-07-31T04:52:24;15.70;99.90
60353;DHT22;46196;52.970;6.954;2023-07-31T04:54:49;16.10;99.90
60353;DHT22;46196;52.970;6.954;2023-07-31T04:59:42;15.80;99.90
60353;DHT22;46196;52.970;6.954;2023-07-31T05:02:08;15.70;99.90
60353;DHT22;46196;52.970;6.954;2023-07-31T05:04:34;15.60;99.90
60353;DHT22;46196;52.970;6.954;2023-07-31T05:07:02;15.70;99.90
60353;DHT22;46196;52.970;6.954;2023-07-31T05:09:28;15.90;99.90
60353;DHT22;46196;52.970;6.954;2023-07-31T05:11:54;15.70;99.90
60353;DHT22;46196;52.970;6.954;2023-07-31T05:16:46;16.40;99.90
60353;DHT22;46196;52.970;6.954;2023-07-31T05:21:38;15.20;99.90
60353;DHT22;46196;52.970;6.954;2023-07-31T05:24:04;16.00;99.90
60353;DHT22;46196;52.970;6.954;2023-07-31T05:26:30;15.90;99.90
60353;DHT22;46196;52.970;6.954;2023-07-31T05:28:55;15.70;99.90
60353;DHT22;46196;52.970;6.954;2023-07-31T05:33:48;15.80;99.90
60353;DHT22;46196;52.970;6.954;2023-07-31T05:36:16;16.40;99.90
60353;DHT22;46196;52.970;6.954;2023-07-31T05:38:42;17.00;99.90
60353;DHT22;46196;52.970;6.954;2023-07-31T05:41:11;16.40;99.90
60353;DHT22;46196;52.970;6.954;2023-07-31T05:43:39;15.90;99.90
60353;DHT22;46196;52.970;6.954;2023-07-31T05:48:32;16.00;99.90
60353;DHT22;46196;52.970;6.954;2023-07-31T05:50:59;16.20;99.90
60353;DHT22;46196;52.970;6.954;2023-07-31T05:53:25;16.20;99.90
60353;DHT22;46196;52.970;6.954;2023-07-31T05:55:51;17.10;99.90
60353;DHT22;46196;52.970;6.954;2023-07-31T05:58:17;17.00;99.90
60353;DHT22;46196;52.970;6.954;2023-07-31T06:00:42;16.10;99.90
60353;DHT22;46196;52.970;6.954;2023-07-31T06:03:08;16.30;99.90
60353;DHT22;46196;52.970;6.954;2023-07-31T06:05:34;16.50;99.90
60353;DHT22;46196;52.970;6.954;2023-07-31T06:08:00;17.60;99.90
60353;DHT22;46196;52.970;6.954;2023-07-31T06:10:26;16.40;99.90
60353;DHT22;46196;52.970;6.954;2023-07-31T06:12:52;16.80;99.90
60353;DHT22;46196;52.970;6.954;2023-07-31T06:15:18;16.90;99.90
60353;DHT22;46196;52.970;6.954;2023-07-31T06:17:45;17.20;99.90
60353;DHT22;46196;52.970;6.954;2023-07-31T06:20:10;16.40;99.90
60353;DHT22;46196;52.970;6.954;2023-07-31T06:22:36;16.30;99.90
60353;DHT22;46196;52.970;6.954;2023-07-31T06:25:02;16.10;99.90
60353;DHT22;46196;52.970;6.954;2023-07-31T06:27:28;16.00;99.90
60353;DHT22;46196;52.970;6.954;2023-07-31T06:29:54;15.90;99.90
60353;DHT22;46196;52.970;6.954;2023-07-31T06:32:19;16.10;99.90
60353;DHT22;46196;52.970;6.954;2023-07-31T06:37:12;15.20;99.90
60353;DHT22;46196;52.970;6.954;2023-07-31T06:39:37;16.90;99.90
60353;DHT22;46196;52.970;6.954;2023-07-31T06:42:03;16.50;99.90
60353;DHT22;46196;52.970;6.954;2023-07-31T06:44:29;16.50;99.90
60353;DHT22;46196;52.970;6.954;2023-07-31T06:51:50;16.50;99.90
60353;DHT22;46196;52.970;6.954;2023-07-31T06:54:16;16.50;99.90
60353;DHT22;46196;52.970;6.954;2023-07-31T06:56:42;16.50;99.90
60353;DHT22;46196;52.970;6.954;2023-07-31T06:59:07;16.50;99.90
60353;DHT22;46196;52.970;6.954;2023-07-31T07:01:33;17.50;99.90
60353;DHT22;46196;52.970;6.954;2023-07-31T07:06:25;16.60;99.90
60353;DHT22;46196;52.970;6.954;2023-07-31T07:08:51;17.70;99.90
60353;DHT22;46196;52.970;6.954;2023-07-31T07:11:16;17.30;99.90
60353;DHT22;46196;52.970;6.954;2023-07-31T07:13:42;16.60;99.90
60353;DHT22;46196;52.970;6.954;2023-07-31T07:16:08;17.20;99.90
60353;DHT22;46196;52.970;6.954;2023-07-31T07:18:33;16.40;99.90
60353;DHT22;46196;52.970;6.954;2023-07-31T07:20:59;17.00;99.90
60353;DHT22;46196;52.970;6.954;2023-07-31T07:23:27;16.60;99.90
60353;DHT22;46196;52.970;6.954;2023-07-31T07:25:53;16.70;99.90
60353;DHT22;46196;52.970;6.954;2023-07-31T07:28:19;16.60;99.90
60353;DHT22;46196;52.970;6.954;2023-07-31T07:30:44;15.90;99.90
60353;DHT22;46196;52.970;6.954;2023-07-31T07:35:37;16.40;99.90
60353;DHT22;46196;52.970;6.954;2023-07-31T07:38:03;16.40;99.90
60353;DHT22;46196;52.970;6.954;2023-07-31T07:45:21;16.70;99.90
60353;DHT22;46196;52.970;6.954;2023-07-31T07:47:47;16.30;99.90
60353;DHT22;46196;52.970;6.954;2023-07-31T07:50:13;16.50;99.90
60353;DHT22;46196;52.970;6.954;2023-07-31T07:52:38;17.00;99.90
60353;DHT22;46196;52.970;6.954;2023-07-31T07:55:04;17.10;99.90
60353;DHT22;46196;52.970;6.954;2023-07-31T07:57:30;17.90;99.90
60353;DHT22;46196;52.970;6.954;2023-07-31T07:59:55;16.90;99.90
60353;DHT22;46196;52.970;6.954;2023-07-31T08:02:22;16.60;99.90
60353;DHT22;46196;52.970;6.954;2023-07-31T08:04:47;16.60;99.90
60353;DHT22;46196;52.970;6.954;2023-07-31T08:07:14;16.40;99.90
60353;DHT22;46196;52.970;6.954;2023-07-31T08:09:40;16.50;99.90
60353;DHT22;46196;52.970;6.954;2023-07-31T08:12:06;16.70;99.90
60353;DHT22;46196;52.970;6.954;2023-07-31T08:14:32;16.50;99.90
60353;DHT22;46196;52.970;6.954;2023-07-31T08:16:58;16.70;99.90
60353;DHT22;46196;52.970;6.954;2023-07-31T08:19:24;16.70;99.90
60353;DHT22;46196;52.970;6.954;2023-07-31T08:21:50;16.90;99.90
60353;DHT22;46196;52.970;6.954;2023-07-31T08:24:16;16.90;99.90
60353;DHT22;46196;52.970;6.954;2023-07-31T08:26:42;17.30;99.90
60353;DHT22;46196;52.970;6.954;2023-07-31T08:29:08;16.90;99.90
60353;DHT22;46196;52.970;6.954;2023-07-31T08:31:34;16.50;99.90
60353;DHT22;46196;52.970;6.954;2023-07-31T08:34:00;16.70;99.90
60353;DHT22;46196;52.970;6.954;2023-07-31T08:36:26;16.90;99.90
60353;DHT22;46196;52.970;6.954;2023-07-31T08:38:52;17.10;99.90
60353;DHT22;46196;52.970;6.954;2023-07-31T08:41:17;17.10;99.90
60353;DHT22;46196;52.970;6.954;2023-07-31T08:43:47;17.20;99.90
60353;DHT22;46196;52.970;6.954;2023-07-31T08:46:12;17.20;99.90
60353;DHT22;46196;52.970;6.954;2023-07-31T08:48:41;17.90;99.90
60353;DHT22;46196;52.970;6.954;2023-07-31T08:51:07;17.20;99.90
60353;DHT22;46196;52.970;6.954;2023-07-31T08:53:33;17.40;99.90
60353;DHT22;46196;52.970;6.954;2023-07-31T08:58:28;17.80;99.90
60353;DHT22;46196;52.970;6.954;2023-07-31T09:00:57;17.10;99.90
60353;DHT22;46196;52.970;6.954;2023-07-31T09:03:24;17.00;99.90
60353;DHT22;46196;52.970;6.954;2023-07-31T09:05:51;17.40;99.90
60353;DHT22;46196;52.970;6.954;2023-07-31T09:08:21;16.80;99.90
60353;DHT22;46196;52.970;6.954;2023-07-31T09:10:47;17.20;99.90
60353;DHT22;46196;52.970;6.954;2023-07-31T09:13:15;17.40;99.90
60353;DHT22;46196;52.970;6.954;2023-07-31T09:15:43;17.40;99.90
60353;DHT22;46196;52.970;6.954;2023-07-31T09:18:10;16.50;99.90
60353;DHT22;46196;52.970;6.954;2023-07-31T09:20:36;19.70;99.90
60353;DHT22;46196;52.970;6.954;2023-07-31T09:23:11;17.60;99.90
60353;DHT22;46196;52.970;6.954;2023-07-31T09:25:38;17.50;99.90
60353;DHT22;46196;52.970;6.954;2023-07-31T09:30:31;17.70;99.90
60353;DHT22;46196;52.970;6.954;2023-07-31T09:33:02;17.70;99.90
60353;DHT22;46196;52.970;6.954;2023-07-31T09:35:32;16.90;99.90
60353;DHT22;46196;52.970;6.954;2023-07-31T09:38:00;18.00;99.90
60353;DHT22;46196;52.970;6.954;2023-07-31T09:40:39;17.80;99.90
60353;DHT22;46196;52.970;6.954;2023-07-31T09:43:07;17.70;99.90
60353;DHT22;46196;52.970;6.954;2023-07-31T09:45:38;17.80;99.90
60353;DHT22;46196;52.970;6.954;2023-07-31T09:48:14;17.80;99.90
60353;DHT22;46196;52.970;6.954;2023-07-31T09:50:47;17.80;99.90
60353;DHT22;46196;52.970;6.954;2023-07-31T09:53:13;17.70;99.90
60353;DHT22;46196;52.970;6.954;2023-07-31T09:55:40;17.40;99.90
60353;DHT22;46196;52.970;6.954;2023-07-31T09:58:11;17.80;99.90
60353;DHT22;46196;52.970;6.954;2023-07-31T10:00:37;17.70;99.90
60353;DHT22;46196;52.970;6.954;2023-07-31T10:03:10;17.80;99.90
60353;DHT22;46196;52.970;6.954;2023-07-31T10:05:49;17.70;99.90
60353;DHT22;46196;52.970;6.954;2023-07-31T10:08:16;17.60;99.90
60353;DHT22;46196;52.970;6.954;2023-07-31T10:10:44;17.70;99.90
60353;DHT22;46196;52.970;6.954;2023-07-31T10:13:11;17.80;99.90
60353;DHT22;46196;52.970;6.954;2023-07-31T10:15:37;17.60;99.90
60353;DHT22;46196;52.970;6.954;2023-07-31T10:18:03;19.30;99.90
60353;DHT22;46196;52.970;6.954;2023-07-31T10:20:31;18.90;99.90
60353;DHT22;46196;52.970;6.954;2023-07-31T10:22:57;17.30;99.90
60353;DHT22;46196;52.970;6.954;2023-07-31T10:25:26;17.90;99.90
60353;DHT22;46196;52.970;6.954;2023-07-31T10:27:52;18.20;99.90
60353;DHT22;46196;52.970;6.954;2023-07-31T10:30:22;18.50;99.90
60353;DHT22;46196;52.970;6.954;2023-07-31T10:32:48;18.00;99.90
60353;DHT22;46196;52.970;6.954;2023-07-31T10:35:16;18.30;99.90
60353;DHT22;46196;52.970;6.954;2023-07-31T10:37:43;18.30;99.90
60353;DHT22;46196;52.970;6.954;2023-07-31T10:40:19;18.30;99.90
60353;DHT22;46196;52.970;6.954;2023-07-31T10:42:56;18.40;99.90
60353;DHT22;46196;52.970;6.954;2023-07-31T10:45:36;17.20;99.90
60353;DHT22;46196;52.970;6.954;2023-07-31T10:48:06;18.00;99.90
60353;DHT22;46196;52.970;6.954;2023-07-31T10:50:32;18.50;99.90
60353;DHT22;46196;52.970;6.954;2023-07-31T10:52:58;18.60;99.90
60353;DHT22;46196;52.970;6.954;2023-07-31T10:55:27;18.30;99.90
60353;DHT22;46196;52.970;6.954;2023-07-31T10:58:07;17.60;99.90
60353;DHT22;46196;52.970;6.954;2023-07-31T11:00:34;18.60;99.90
60353;DHT22;46196;52.970;6.954;2023-07-31T11:03:27;18.20;99.90
60353;DHT22;46196;52.970;6.954;2023-07-31T11:06:01;18.70;99.90
60353;DHT22;46196;52.970;6.954;2023-07-31T11:08:30;19.70;99.90
60353;DHT22;46196;52.970;6.954;2023-07-31T11:15:54;18.80;99.90
60353;DHT22;46196;52.970;6.954;2023-07-31T11:18:20;18.50;99.90
60353;DHT22;46196;52.970;6.954;2023-07-31T11:20:46;18.80;99.90
60353;DHT22;46196;52.970;6.954;2023-07-31T11:25:39;18.00;99.90
60353;DHT22;46196;52.970;6.954;2023-07-31T11:28:12;18.90;99.90
60353;DHT22;46196;52.970;6.954;2023-07-31T11:30:39;19.20;99.90
60353;DHT22;46196;52.970;6.954;2023-07-31T11:33:07;18.30;99.90
60353;DHT22;46196;52.970;6.954;2023-07-31T11:40:53;19.60;99.90
60353;DHT22;46196;52.970;6.954;2023-07-31T11:43:19;19.00;99.90
60353;DHT22;46196;52.970;6.954;2023-07-31T11:45:58;19.30;99.90
60353;DHT22;46196;52.970;6.954;2023-07-31T11:48:31;18.90;99.90
60353;DHT22;46196;52.970;6.954;2023-07-31T11:51:01;18.90;99.90
60353;DHT22;46196;52.970;6.954;2023-07-31T11:56:01;17.80;99.90
60353;DHT22;46196;52.970;6.954;2023-07-31T11:58:29;18.60;99.90
60353;DHT22;46196;52.970;6.954;2023-07-31T12:00:57;18.50;99.90
60353;DHT22;46196;52.970;6.954;2023-07-31T12:03:23;18.60;99.90
60353;DHT22;46196;52.970;6.954;2023-07-31T12:05:49;18.70;99.90
60353;DHT22;46196;52.970;6.954;2023-07-31T12:08:15;18.40;99.90
60353;DHT22;46196;52.970;6.954;2023-07-31T12:10:41;18.80;99.90
60353;DHT22;46196;52.970;6.954;2023-07-31T12:13:19;18.90;99.90
60353;DHT22;46196;52.970;6.954;2023-07-31T12:15:46;19.00;99.90
60353;DHT22;46196;52.970;6.954;2023-07-31T12:18:13;19.20;99.90
60353;DHT22;46196;52.970;6.954;2023-07-31T12:20:57;19.40;99.90
60353;DHT22;46196;52.970;6.954;2023-07-31T12:23:26;19.80;99.90
60353;DHT22;46196;52.970;6.954;2023-07-31T12:26:17;19.70;99.90
60353;DHT22;46196;52.970;6.954;2023-07-31T12:31:15;19.90;99.90
60353;DHT22;46196;52.970;6.954;2023-07-31T12:33:43;19.30;99.90
60353;DHT22;46196;52.970;6.954;2023-07-31T12:36:14;19.50;99.90
60353;DHT22;46196;52.970;6.954;2023-07-31T12:38:40;19.20;99.90
60353;DHT22;46196;52.970;6.954;2023-07-31T12:41:06;19.20;99.90
60353;DHT22;46196;52.970;6.954;2023-07-31T12:43:36;19.10;99.90
60353;DHT22;46196;52.970;6.954;2023-07-31T12:46:02;19.00;99.90
60353;DHT22;46196;52.970;6.954;2023-07-31T12:48:28;19.20;99.90
60353;DHT22;46196;52.970;6.954;2023-07-31T12:50:53;14.80;99.90
60353;DHT22;46196;52.970;6.954;2023-07-31T12:53:19;20.20;99.90
60353;DHT22;46196;52.970;6.954;2023-07-31T12:58:11;18.80;99.90
60353;DHT22;46196;52.970;6.954;2023-07-31T13:00:36;19.10;99.90
60353;DHT22;46196;52.970;6.954;2023-07-31T13:03:03;19.20;99.90
60353;DHT22;46196;52.970;6.954;2023-07-31T13:05:29;19.30;99.90
60353;DHT22;46196;52.970;6.954;2023-07-31T13:07:55;19.70;99.90
60353;DHT22;46196;52.970;6.954;2023-07-31T13:10:22;19.60;99.90
60353;DHT22;46196;52.970;6.954;2023-07-31T13:15:14;19.40;99.90
60353;DHT22;46196;52.970;6.954;2023-07-31T13:17:40;19.50;99.90
60353;DHT22;46196;52.970;6.954;2023-07-31T13:20:06;19.50;99.90
60353;DHT22;46196;52.970;6.954;2023-07-31T13:22:32;19.20;99.90
60353;DHT22;46196;52.970;6.954;2023-07-31T13:24:58;19.20;99.90
60353;DHT22;46196;52.970;6.954;2023-07-31T13:27:23;19.60;99.90
60353;DHT22;46196;52.970;6.954;2023-07-31T13:29:53;20.00;99.90
60353;DHT22;46196;52.970;6.954;2023-07-31T13:32:19;19.50;99.90
60353;DHT22;46196;52.970;6.954;2023-07-31T13:34:45;19.90;99.90
60353;DHT22;46196;52.970;6.954;2023-07-31T13:37:11;19.50;99.90
60353;DHT22;46196;52.970;6.954;2023-07-31T13:39:37;19.60;99.90
60353;DHT22;46196;52.970;6.954;2023-07-31T13:42:03;19.10;99.90
60353;DHT22;46196;52.970;6.954;2023-07-31T13:44:32;19.60;99.90
60353;DHT22;46196;52.970;6.954;2023-07-31T13:46:58;19.00;99.90
60353;DHT22;46196;52.970;6.954;2023-07-31T13:49:23;19.40;99.90
60353;DHT22;46196;52.970;6.954;2023-07-31T13:51:49;20.00;99.90
60353;DHT22;46196;52.970;6.954;2023-07-31T13:54:15;19.60;99.90
60353;DHT22;46196;52.970;6.954;2023-07-31T13:56:42;19.30;99.90
60353;DHT22;46196;52.970;6.954;2023-07-31T13:59:08;19.60;99.90
60353;DHT22;46196;52.970;6.954;2023-07-31T14:01:34;19.50;99.90
60353;DHT22;46196;52.970;6.954;2023-07-31T14:03:59;19.90;99.90
60353;DHT22;46196;52.970;6.954;2023-07-31T14:06:25;20.40;99.90
60353;DHT22;46196;52.970;6.954;2023-07-31T14:08:51;19.40;99.90
60353;DHT22;46196;52.970;6.954;2023-07-31T14:11:16;19.90;99.90
60353;DHT22;46196;52.970;6.954;2023-07-31T14:13:42;20.50;99.90
60353;DHT22;46196;52.970;6.954;2023-07-31T14:16:08;19.60;99.90
60353;DHT22;46196;52.970;6.954;2023-07-31T14:18:34;19.90;99.90
60353;DHT22;46196;52.970;6.954;2023-07-31T14:20:59;20.10;99.90
60353;DHT22;46196;52.970;6.954;2023-07-31T14:25:51;19.80;99.90
60353;DHT22;46196;52.970;6.954;2023-07-31T14:28:17;19.70;99.90
60353;DHT22;46196;52.970;6.954;2023-07-31T14:30:43;19.90;99.90
60353;DHT22;46196;52.970;6.954;2023-07-31T14:33:08;20.10;99.90
60353;DHT22;46196;52.970;6.954;2023-07-31T14:35:34;20.20;99.90
60353;DHT22;46196;52.970;6.954;2023-07-31T14:38:01;20.20;99.90
60353;DHT22;46196;52.970;6.954;2023-07-31T14:40:27;19.70;99.90
60353;DHT22;46196;52.970;6.954;2023-07-31T14:42:53;20.00;99.90
60353;DHT22;46196;52.970;6.954;2023-07-31T14:45:19;21.00;99.90
60353;DHT22;46196;52.970;6.954;2023-07-31T14:47:44;20.60;99.90
60353;DHT22;46196;52.970;6.954;2023-07-31T14:50:10;20.70;99.90
60353;DHT22;46196;52.970;6.954;2023-07-31T14:52:36;20.50;99.90
60353;DHT22;46196;52.970;6.954;2023-07-31T14:55:02;20.30;99.90
60353;DHT22;46196;52.970;6.954;2023-07-31T14:57:28;19.90;99.90
60353;DHT22;46196;52.970;6.954;2023-07-31T14:59:53;20.40;99.90
60353;DHT22;46196;52.970;6.954;2023-07-31T15:04:45;20.20;99.90
60353;DHT22;46196;52.970;6.954;2023-07-31T15:07:11;20.10;99.90
60353;DHT22;46196;52.970;6.954;2023-07-31T15:09:38;19.70;99.90
60353;DHT22;46196;52.970;6.954;2023-07-31T15:12:05;20.10;99.90
60353;DHT22;46196;52.970;6.954;2023-07-31T15:14:31;20.20;99.90
60353;DHT22;46196;52.970;6.954;2023-07-31T15:16:57;19.10;99.90
60353;DHT22;46196;52.970;6.954;2023-07-31T15:19:23;20.70;99.90
60353;DHT22;46196;52.970;6.954;2023-07-31T15:21:49;19.90;99.90
60353;DHT22;46196;52.970;6.954;2023-07-31T15:24:15;19.90;99.90
60353;DHT22;46196;52.970;6.954;2023-07-31T15:26:41;19.90;99.90
60353;DHT22;46196;52.970;6.954;2023-07-31T15:29:08;20.50;99.90
60353;DHT22;46196;52.970;6.954;2023-07-31T15:31:43;19.70;99.90
60353;DHT22;46196;52.970;6.954;2023-07-31T15:34:09;20.30;99.90
60353;DHT22;46196;52.970;6.954;2023-07-31T15:36:35;19.90;99.90
60353;DHT22;46196;52.970;6.954;2023-07-31T15:39:01;19.90;99.90
60353;DHT22;46196;52.970;6.954;2023-07-31T15:41:26;19.90;99.90
60353;DHT22;46196;52.970;6.954;2023-07-31T15:43:55;19.90;99.90
60353;DHT22;46196;52.970;6.954;2023-07-31T15:46:21;19.80;99.90
60353;DHT22;46196;52.970;6.954;2023-07-31T15:48:46;19.90;99.90
60353;DHT22;46196;52.970;6.954;2023-07-31T15:51:12;20.30;99.90
60353;DHT22;46196;52.970;6.954;2023-07-31T15:53:38;19.80;99.90
60353;DHT22;46196;52.970;6.954;2023-07-31T15:56:04;19.80;99.90
60353;DHT22;46196;52.970;6.954;2023-07-31T15:58:30;19.80;99.90
60353;DHT22;46196;52.970;6.954;2023-07-31T16:00:56;18.60;99.90
60353;DHT22;46196;52.970;6.954;2023-07-31T16:03:22;20.10;99.90
60353;DHT22;46196;52.970;6.954;2023-07-31T16:05:48;19.70;99.90
60353;DHT22;46196;52.970;6.954;2023-07-31T16:08:14;19.70;99.90
60353;DHT22;46196;52.970;6.954;2023-07-31T16:10:39;19.70;99.90
60353;DHT22;46196;52.970;6.954;2023-07-31T16:13:05;19.70;99.90
60353;DHT22;46196;52.970;6.954;2023-07-31T16:15:31;19.60;99.90
60353;DHT22;46196;52.970;6.954;2023-07-31T16:17:57;19.50;99.90
60353;DHT22;46196;52.970;6.954;2023-07-31T16:20:23;19.50;99.90
60353;DHT22;46196;52.970;6.954;2023-07-31T16:22:49;19.40;99.90
60353;DHT22;46196;52.970;6.954;2023-07-31T16:25:15;19.40;99.90
60353;DHT22;46196;52.970;6.954;2023-07-31T16:27:41;19.30;99.90
60353;DHT22;46196;52.970;6.954;2023-07-31T16:30:07;18.40;99.90
60353;DHT22;46196;52.970;6.954;2023-07-31T16:32:32;19.30;99.90
60353;DHT22;46196;52.970;6.954;2023-07-31T16:34:58;19.60;99.90
60353;DHT22;46196;52.970;6.954;2023-07-31T16:37:24;19.20;99.90
60353;DHT22;46196;52.970;6.954;2023-07-31T16:39:50;19.20;99.90
60353;DHT22;46196;52.970;6.954;2023-07-31T16:42:21;19.10;99.90
60353;DHT22;46196;52.970;6.954;2023-07-31T16:44:47;18.70;99.90
60353;DHT22;46196;52.970;6.954;2023-07-31T16:47:13;19.20;99.90
60353;DHT22;46196;52.970;6.954;2023-07-31T16:49:38;19.00;99.90
60353;DHT22;46196;52.970;6.954;2023-07-31T16:52:04;19.90;99.90
60353;DHT22;46196;52.970;6.954;2023-07-31T16:54:30;18.80;99.90
60353;DHT22;46196;52.970;6.954;2023-07-31T16:56:58;18.80;99.90
60353;DHT22;46196;52.970;6.954;2023-07-31T16:59:24;18.70;99.90
60353;DHT22;46196;52.970;6.954;2023-07-31T17:01:50;18.00;99.90
60353;DHT22;46196;52.970;6.954;2023-07-31T17:04:16;19.10;99.90
60353;DHT22;46196;52.970;6.954;2023-07-31T17:06:42;18.60;99.90
60353;DHT22;46196;52.970;6.954;2023-07-31T17:09:08;18.70;99.90
60353;DHT22;46196;52.970;6.954;2023-07-31T17:11:35;19.20;99.90
60353;DHT22;46196;52.970;6.954;2023-07-31T17:14:01;18.80;99.90
60353;DHT22;46196;52.970;6.954;2023-07-31T17:16:29;18.80;99.90
60353;DHT22;46196;52.970;6.954;2023-07-31T17:18:57;17.10;99.90
60353;DHT22;46196;52.970;6.954;2023-07-31T17:23:48;18.50;99.90
60353;DHT22;46196;52.970;6.954;2023-07-31T17:26:14;18.30;99.90
60353;DHT22;46196;52.970;6.954;2023-07-31T17:31:06;18.50;99.90